Time;durP1;ratioP1;P1;durP2;ratioP2;P2;SDS_P1;SDS_P2;PMS_P1;PMS_P2;Temp;Humidity;BMP_temperature;BMP_pressure;BME280_temperature;BME280_humidity;BME280_pressure;Samples;Min_cycle;Max_cycle;Signal;HPM_P1;HPM_P2
2021/11/30 00:02:23;;;;;;;0.35;0.35;;;;;;;;;;5037704;28;20045;-72
2021/11/30 00:04:49;;;;;;;1.02;0.63;;;;;;;;;;5036006;28;20029;-72
2021/11/30 00:07:15;;;;;;;0.10;0.10;;;;;;;;;;5039830;28;20029;-72
2021/11/30 00:12:07;;;;;;;0.30;0.30;;;;;;;;;;5030018;28;20033;-72
2021/11/30 00:14:33;;;;;;;0.10;0.10;;;;;;;;;;5033842;28;20028;-73
2021/11/30 00:16:59;;;;;;;0.73;0.73;;;;;;;;;;5034759;28;20040;-72
2021/11/30 00:19:28;;;;;;;0.22;0.22;;;;;;;;;;5033826;28;20033;-72
2021/11/30 00:21:54;;;;;;;0.25;0.25;;;;;;;;;;5031763;28;20053;-72
2021/11/30 00:24:22;;;;;;;0.63;0.63;;;;;;;;;;5043519;28;20391;-72
2021/11/30 00:26:48;;;;;;;0.77;0.47;;;;;;;;;;5037251;28;20547;-72
2021/11/30 00:29:13;;;;;;;0.55;0.55;;;;;;;;;;5033175;28;20102;-72
2021/11/30 00:31:39;;;;;;;1.27;0.70;;;;;;;;;;5045571;28;20061;-72
2021/11/30 00:34:05;;;;;;;0.50;0.50;;;;;;;;;;5030667;28;20022;-73
2021/11/30 00:36:31;;;;;;;0.20;0.20;;;;;;;;;;5034738;28;20581;-71
2021/11/30 00:38:57;;;;;;;1.55;0.43;;;;;;;;;;5032864;28;20025;-72
2021/11/30 00:41:23;;;;;;;0.55;0.55;;;;;;;;;;5029129;28;20026;-72
2021/11/30 00:43:51;;;;;;;0.57;0.52;;;;;;;;;;5030337;28;20029;-72
2021/11/30 00:46:28;;;;;;;0.10;0.10;;;;;;;;;;5040507;28;20025;-72
2021/11/30 00:48:57;;;;;;;0.90;0.80;;;;;;;;;;5029606;28;20025;-72
2021/11/30 00:51:23;;;;;;;1.25;0.90;;;;;;;;;;5038167;28;20068;-72
2021/11/30 00:53:50;;;;;;;0.00;0.00;;;;;;;;;;5048225;28;20033;-72
2021/11/30 00:56:16;;;;;;;0.85;0.40;;;;;;;;;;5030455;28;20045;-72
2021/11/30 00:58:43;;;;;;;0.73;0.73;;;;;;;;;;5033001;28;20037;-72
2021/11/30 01:01:09;;;;;;;0.08;0.08;;;;;;;;;;5036049;28;20052;-71
2021/11/30 01:03:35;;;;;;;0.28;0.28;;;;;;;;;;5028935;28;20105;-72
2021/11/30 01:06:01;;;;;;;0.17;0.17;;;;;;;;;;5032017;28;20384;-72
2021/11/30 01:08:27;;;;;;;0.45;0.45;;;;;;;;;;5032917;28;20029;-71
2021/11/30 01:10:53;;;;;;;1.27;1.17;;;;;;;;;;5028562;28;20057;-72
2021/11/30 01:13:19;;;;;;;0.20;0.20;;;;;;;;;;5030382;28;20372;-72
2021/11/30 01:15:46;;;;;;;0.38;0.38;;;;;;;;;;5035270;28;20057;-72
2021/11/30 01:18:12;;;;;;;0.08;0.08;;;;;;;;;;5040288;28;20021;-71
2021/11/30 01:20:38;;;;;;;0.20;0.20;;;;;;;;;;5031665;28;20063;-72
2021/11/30 01:23:05;;;;;;;0.00;0.00;;;;;;;;;;5035626;28;20036;-72
2021/11/30 01:25:31;;;;;;;0.10;0.10;;;;;;;;;;5050819;28;20025;-72
2021/11/30 01:27:57;;;;;;;1.08;0.98;;;;;;;;;;5035724;28;20108;-72
2021/11/30 01:30:23;;;;;;;0.20;0.20;;;;;;;;;;5043237;28;20158;-72
2021/11/30 01:32:49;;;;;;;0.47;0.32;;;;;;;;;;5032729;28;20500;-72
2021/11/30 01:35:16;;;;;;;1.10;0.45;;;;;;;;;;5031591;28;20030;-72
2021/11/30 01:37:43;;;;;;;0.10;0.10;;;;;;;;;;5036867;28;20708;-72
2021/11/30 01:40:10;;;;;;;5.05;1.30;;;;;;;;;;5032522;28;20091;-71
2021/11/30 01:42:41;;;;;;;0.10;0.10;;;;;;;;;;5041183;28;20056;-72
2021/11/30 01:45:09;;;;;;;0.52;0.30;;;;;;;;;;5043145;28;20028;-72
2021/11/30 01:47:52;;;;;;;0.80;0.80;;;;;;;;;;5037400;28;20030;-72
2021/11/30 01:50:17;;;;;;;0.38;0.38;;;;;;;;;;5039606;28;20021;-72
2021/11/30 01:52:46;;;;;;;0.60;0.28;;;;;;;;;;5039575;28;20120;-72
2021/11/30 01:55:12;;;;;;;0.25;0.25;;;;;;;;;;5034064;28;20092;-72
2021/11/30 01:57:38;;;;;;;0.20;0.20;;;;;;;;;;5031909;28;20033;-72
2021/11/30 02:00:04;;;;;;;0.60;0.30;;;;;;;;;;5033488;28;20379;-72
2021/11/30 02:02:30;;;;;;;0.22;0.22;;;;;;;;;;5035166;28;20113;-72
2021/11/30 02:04:56;;;;;;;0.20;0.20;;;;;;;;;;5032027;28;20112;-71
2021/11/30 02:07:22;;;;;;;0.47;0.47;;;;;;;;;;5032443;28;20032;-72
2021/11/30 02:09:49;;;;;;;0.30;0.30;;;;;;;;;;5034293;28;20467;-72
2021/11/30 02:12:15;;;;;;;0.10;0.10;;;;;;;;;;5037417;28;20044;-72
2021/11/30 02:14:45;;;;;;;1.17;0.63;;;;;;;;;;5036270;28;20164;-72
2021/11/30 02:17:11;;;;;;;0.47;0.47;;;;;;;;;;5036969;28;20107;-71
2021/11/30 02:19:42;;;;;;;0.30;0.30;;;;;;;;;;5033015;28;20070;-72
2021/11/30 02:22:11;;;;;;;0.30;0.30;;;;;;;;;;5049262;28;20056;-72
2021/11/30 02:24:37;;;;;;;0.10;0.10;;;;;;;;;;5039734;28;20495;-72
2021/11/30 02:27:03;;;;;;;1.98;1.10;;;;;;;;;;5035796;28;20032;-72
2021/11/30 02:29:29;;;;;;;0.75;0.73;;;;;;;;;;5044913;28;20021;-72
2021/11/30 02:31:55;;;;;;;0.65;0.63;;;;;;;;;;5043174;28;20029;-72
2021/11/30 02:34:21;;;;;;;1.08;0.85;;;;;;;;;;5038502;28;20017;-72
2021/11/30 02:36:54;;;;;;;0.00;0.00;;;;;;;;;;5043672;28;20033;-71
2021/11/30 02:39:25;;;;;;;1.30;0.32;;;;;;;;;;5044488;28;20107;-72
2021/11/30 02:41:52;;;;;;;0.28;0.28;;;;;;;;;;5032809;28;20035;-72
2021/11/30 02:44:20;;;;;;;0.55;0.55;;;;;;;;;;5035702;28;20056;-72
2021/11/30 02:46:48;;;;;;;1.25;1.15;;;;;;;;;;5037502;28;20031;-72
2021/11/30 02:49:15;;;;;;;0.20;0.20;;;;;;;;;;5043157;28;20033;-72
2021/11/30 02:51:43;;;;;;;0.30;0.30;;;;;;;;;;5043840;28;20475;-72
2021/11/30 02:54:11;;;;;;;0.10;0.10;;;;;;;;;;5034962;28;20167;-72
2021/11/30 02:56:38;;;;;;;0.75;0.35;;;;;;;;;;5047488;28;20028;-71
2021/11/30 02:59:04;;;;;;;1.08;1.05;;;;;;;;;;5043910;28;20021;-72
2021/11/30 03:01:30;;;;;;;1.38;1.27;;;;;;;;;;5041607;28;20024;-72
2021/11/30 03:03:56;;;;;;;0.60;0.60;;;;;;;;;;5037444;28;20055;-72
2021/11/30 03:06:22;;;;;;;0.70;0.70;;;;;;;;;;5037951;28;20360;-72
2021/11/30 03:08:48;;;;;;;0.75;0.75;;;;;;;;;;5040132;28;20045;-72
2021/11/30 03:11:14;;;;;;;1.25;0.57;;;;;;;;;;5037173;28;20017;-72
2021/11/30 03:13:40;;;;;;;0.20;0.20;;;;;;;;;;5045077;28;20051;-72
2021/11/30 03:16:06;;;;;;;0.60;0.60;;;;;;;;;;5031608;28;20036;-72
2021/11/30 03:18:32;;;;;;;0.10;0.10;;;;;;;;;;5029587;28;20033;-72
2021/11/30 03:20:58;;;;;;;1.48;0.73;;;;;;;;;;5030334;28;20460;-72
2021/11/30 03:23:24;;;;;;;0.10;0.10;;;;;;;;;;5044243;28;20075;-72
2021/11/30 03:25:50;;;;;;;0.10;0.10;;;;;;;;;;5037677;28;20393;-72
2021/11/30 03:28:15;;;;;;;0.25;0.25;;;;;;;;;;5032113;28;20029;-72
2021/11/30 03:30:52;;;;;;;0.55;0.55;;;;;;;;;;5035325;28;20025;-71
2021/11/30 03:36:04;;;;;;;0.30;0.30;;;;;;;;;;5033523;28;20083;-72
2021/11/30 03:38:30;;;;;;;0.90;0.90;;;;;;;;;;5036113;28;20029;-72
2021/11/30 03:40:55;;;;;;;2.15;1.95;;;;;;;;;;5030486;28;20021;-72
2021/11/30 03:43:21;;;;;;;0.40;0.30;;;;;;;;;;5035644;28;20561;-73
2021/11/30 03:45:47;;;;;;;0.50;0.50;;;;;;;;;;5035657;28;21812;-72
2021/11/30 03:48:14;;;;;;;0.55;0.55;;;;;;;;;;5046997;28;20391;-72
2021/11/30 03:50:40;;;;;;;0.35;0.35;;;;;;;;;;5048525;28;20036;-72
2021/11/30 03:53:06;;;;;;;1.30;0.55;;;;;;;;;;5039140;28;20629;-72
2021/11/30 03:55:31;;;;;;;1.38;0.88;;;;;;;;;;5041800;28;20082;-72
2021/11/30 03:57:57;;;;;;;0.47;0.47;;;;;;;;;;5038017;28;20082;-72
2021/11/30 04:00:23;;;;;;;1.50;1.40;;;;;;;;;;5030854;28;20119;-72
2021/11/30 04:02:49;;;;;;;2.08;1.08;;;;;;;;;;5043140;28;20025;-72
2021/11/30 04:05:15;;;;;;;0.68;0.68;;;;;;;;;;5034333;28;20038;-72
2021/11/30 04:07:41;;;;;;;0.35;0.35;;;;;;;;;;5028739;28;20180;-72
2021/11/30 04:10:07;;;;;;;0.68;0.68;;;;;;;;;;5029070;28;20396;-73
2021/11/30 04:12:33;;;;;;;0.45;0.45;;;;;;;;;;5038269;28;20021;-72
2021/11/30 04:14:59;;;;;;;0.20;0.20;;;;;;;;;;5030213;28;20420;-72
2021/11/30 04:17:25;;;;;;;0.00;0.00;;;;;;;;;;5044692;28;20116;-72
2021/11/30 04:19:51;;;;;;;3.25;1.88;;;;;;;;;;5031931;28;20123;-72
2021/11/30 04:22:17;;;;;;;0.15;0.15;;;;;;;;;;5035909;28;20045;-72
2021/11/30 04:24:43;;;;;;;0.65;0.28;;;;;;;;;;5034424;28;20040;-73
2021/11/30 04:27:09;;;;;;;0.25;0.25;;;;;;;;;;5032045;28;20025;-72
2021/11/30 04:29:38;;;;;;;1.02;0.70;;;;;;;;;;5044007;28;20528;-72
2021/11/30 04:32:05;;;;;;;0.32;0.32;;;;;;;;;;5043370;28;20032;-71
2021/11/30 04:34:31;;;;;;;0.13;0.13;;;;;;;;;;5031365;28;20025;-73
2021/11/30 04:36:57;;;;;;;0.32;0.32;;;;;;;;;;5045043;28;20607;-72
2021/11/30 04:39:23;;;;;;;0.10;0.10;;;;;;;;;;5038594;28;20022;-73
2021/11/30 04:41:49;;;;;;;0.32;0.30;;;;;;;;;;5038664;28;20059;-72
2021/11/30 04:44:16;;;;;;;0.20;0.20;;;;;;;;;;5033777;28;20022;-72
2021/11/30 04:46:54;;;;;;;0.57;0.57;;;;;;;;;;5033934;28;20476;-72
2021/11/30 04:51:58;;;;;;;0.40;0.40;;;;;;;;;;5038584;28;20084;-72
2021/11/30 04:54:25;;;;;;;1.17;1.02;;;;;;;;;;5031056;28;20030;-72
2021/11/30 04:56:51;;;;;;;5.88;0.90;;;;;;;;;;5050199;28;20096;-72
2021/11/30 04:59:18;;;;;;;0.22;0.20;;;;;;;;;;5040777;28;20032;-71
2021/11/30 05:01:44;;;;;;;6.40;0.60;;;;;;;;;;5045887;28;20037;-72
2021/11/30 05:04:10;;;;;;;0.40;0.40;;;;;;;;;;5036522;28;20030;-72
2021/11/30 05:06:36;;;;;;;0.55;0.55;;;;;;;;;;5033976;28;20083;-72
2021/11/30 05:09:03;;;;;;;0.30;0.30;;;;;;;;;;5046931;28;20021;-72
2021/11/30 05:11:29;;;;;;;0.95;0.52;;;;;;;;;;5047681;28;20537;-72
2021/11/30 05:13:55;;;;;;;0.52;0.52;;;;;;;;;;5035422;28;20108;-72
2021/11/30 05:16:21;;;;;;;0.30;0.30;;;;;;;;;;5043560;28;20113;-72
2021/11/30 05:18:47;;;;;;;0.43;0.35;;;;;;;;;;5048774;28;20496;-72
2021/11/30 05:21:13;;;;;;;0.22;0.22;;;;;;;;;;5044653;28;20033;-71
2021/11/30 05:23:41;;;;;;;2.35;0.75;;;;;;;;;;5044512;28;20037;-72
2021/11/30 05:26:08;;;;;;;0.20;0.20;;;;;;;;;;5041124;28;20499;-72
2021/11/30 05:28:35;;;;;;;0.20;0.20;;;;;;;;;;5032363;28;20029;-72
2021/11/30 05:31:01;;;;;;;2.40;1.73;;;;;;;;;;5036192;28;20029;-71
2021/11/30 05:33:27;;;;;;;1.40;0.82;;;;;;;;;;5034766;28;20302;-72
2021/11/30 05:35:53;;;;;;;0.20;0.20;;;;;;;;;;5032269;28;20407;-72
2021/11/30 05:38:19;;;;;;;1.73;0.63;;;;;;;;;;5039910;28;20022;-72
2021/11/30 05:40:45;;;;;;;0.10;0.10;;;;;;;;;;5038093;28;20037;-72
2021/11/30 05:43:12;;;;;;;0.10;0.10;;;;;;;;;;5040086;28;20021;-72
2021/11/30 05:45:38;;;;;;;0.43;0.43;;;;;;;;;;5038474;28;20051;-72
2021/11/30 05:48:04;;;;;;;0.22;0.15;;;;;;;;;;5049525;28;20447;-72
2021/11/30 05:50:30;;;;;;;0.25;0.25;;;;;;;;;;5031740;28;20037;-72
2021/11/30 05:52:56;;;;;;;0.40;0.40;;;;;;;;;;5048937;28;20108;-72
2021/11/30 05:55:22;;;;;;;0.77;0.75;;;;;;;;;;5045984;28;20036;-72
2021/11/30 05:57:48;;;;;;;0.20;0.20;;;;;;;;;;5043006;28;20408;-72
2021/11/30 06:00:16;;;;;;;0.20;0.20;;;;;;;;;;5038423;28;20449;-72
2021/11/30 06:05:28;;;;;;;0.20;0.20;;;;;;;;;;5031513;28;20040;-72
2021/11/30 06:07:54;;;;;;;0.05;0.05;;;;;;;;;;5031021;28;20156;-73
2021/11/30 06:10:21;;;;;;;0.10;0.10;;;;;;;;;;5041120;28;20031;-72
2021/11/30 06:12:47;;;;;;;0.10;0.10;;;;;;;;;;5036120;28;20038;-72
2021/11/30 06:15:13;;;;;;;0.20;0.20;;;;;;;;;;5038512;28;20079;-73
2021/11/30 06:17:39;;;;;;;2.60;1.30;;;;;;;;;;5036263;28;20041;-72
2021/11/30 06:20:06;;;;;;;0.30;0.30;;;;;;;;;;5032146;28;20526;-72
2021/11/30 06:22:32;;;;;;;0.32;0.32;;;;;;;;;;5030790;28;20133;-72
2021/11/30 06:24:58;;;;;;;0.57;0.43;;;;;;;;;;5030768;28;20179;-72
2021/11/30 06:27:25;;;;;;;2.92;1.00;;;;;;;;;;5039208;28;20029;-72
2021/11/30 06:29:51;;;;;;;0.30;0.30;;;;;;;;;;5044679;28;20029;-73
2021/11/30 06:32:17;;;;;;;0.73;0.73;;;;;;;;;;5034486;28;20074;-73
2021/11/30 06:37:47;;;;;;;0.20;0.20;;;;;;;;;;5013544;28;20579;-72
2021/11/30 06:40:13;;;;;;;0.55;0.32;;;;;;;;;;5031919;28;20217;-72
2021/11/30 06:42:40;;;;;;;0.40;0.40;;;;;;;;;;5044621;28;20082;-72
2021/11/30 06:45:07;;;;;;;0.20;0.20;;;;;;;;;;5031004;28;20079;-72
2021/11/30 06:47:33;;;;;;;0.22;0.22;;;;;;;;;;5030910;28;20048;-72
2021/11/30 06:49:59;;;;;;;0.10;0.10;;;;;;;;;;5030785;28;20029;-73
2021/11/30 06:52:25;;;;;;;0.22;0.22;;;;;;;;;;5034263;28;20036;-72
2021/11/30 06:54:54;;;;;;;0.20;0.20;;;;;;;;;;5044080;28;20491;-72
2021/11/30 06:57:20;;;;;;;0.00;0.00;;;;;;;;;;5046435;28;20574;-72
2021/11/30 06:59:46;;;;;;;0.40;0.40;;;;;;;;;;5034863;28;20043;-72
2021/11/30 07:02:13;;;;;;;0.20;0.20;;;;;;;;;;5049072;28;20407;-73
2021/11/30 07:04:44;;;;;;;0.00;0.00;;;;;;;;;;5040131;28;20162;-72
2021/11/30 07:10:10;;;;;;;0.35;0.35;;;;;;;;;;5048818;28;20556;-73
2021/11/30 07:15:04;;;;;;;0.90;0.40;;;;;;;;;;5039277;28;20037;-72
2021/11/30 07:17:31;;;;;;;1.00;0.95;;;;;;;;;;5030835;28;20546;-72
2021/11/30 07:19:57;;;;;;;0.75;0.35;;;;;;;;;;5038209;28;20036;-72
2021/11/30 07:22:23;;;;;;;0.22;0.22;;;;;;;;;;5047505;28;20510;-72
2021/11/30 07:24:49;;;;;;;0.10;0.10;;;;;;;;;;5030859;28;20034;-72
2021/11/30 07:27:15;;;;;;;0.10;0.10;;;;;;;;;;5032875;28;20021;-73
2021/11/30 07:29:41;;;;;;;0.13;0.13;;;;;;;;;;5033116;28;20143;-73
2021/11/30 07:32:08;;;;;;;0.47;0.47;;;;;;;;;;5032913;28;20480;-70
2021/11/30 07:34:34;;;;;;;0.55;0.55;;;;;;;;;;5043193;28;20514;-71
2021/11/30 07:37:00;;;;;;;0.03;0.03;;;;;;;;;;5032932;28;20048;-71
2021/11/30 07:39:26;;;;;;;0.10;0.10;;;;;;;;;;5038374;28;20102;-69
2021/11/30 07:41:52;;;;;;;0.10;0.10;;;;;;;;;;5042659;28;20052;-69
2021/11/30 07:44:18;;;;;;;0.10;0.10;;;;;;;;;;5044202;28;20420;-70
2021/11/30 07:46:44;;;;;;;0.10;0.10;;;;;;;;;;5030171;28;20108;-70
2021/11/30 07:49:10;;;;;;;0.10;0.10;;;;;;;;;;5042950;28;20017;-69
2021/11/30 07:51:36;;;;;;;0.28;0.28;;;;;;;;;;5036666;28;20021;-73
2021/11/30 07:54:02;;;;;;;0.20;0.20;;;;;;;;;;5037710;28;20037;-73
2021/11/30 07:56:29;;;;;;;0.40;0.40;;;;;;;;;;5034439;28;20028;-71
2021/11/30 07:58:55;;;;;;;0.32;0.32;;;;;;;;;;5040385;28;20402;-71
2021/11/30 08:01:20;;;;;;;0.10;0.10;;;;;;;;;;5043864;28;20100;-71
2021/11/30 08:03:46;;;;;;;0.10;0.10;;;;;;;;;;5036531;28;20041;-71
2021/11/30 08:06:13;;;;;;;0.00;0.00;;;;;;;;;;5038543;28;20018;-73
2021/11/30 08:08:40;;;;;;;0.50;0.50;;;;;;;;;;5046872;28;20092;-72
2021/11/30 08:11:06;;;;;;;0.10;0.10;;;;;;;;;;5033613;28;20051;-72
2021/11/30 08:13:32;;;;;;;0.20;0.20;;;;;;;;;;5031112;28;20558;-73
2021/11/30 08:15:58;;;;;;;0.10;0.10;;;;;;;;;;5034265;28;20075;-73
2021/11/30 08:18:24;;;;;;;0.10;0.10;;;;;;;;;;5047222;28;20021;-74
2021/11/30 08:20:50;;;;;;;0.20;0.20;;;;;;;;;;5049298;28;20043;-73
2021/11/30 08:23:16;;;;;;;0.10;0.10;;;;;;;;;;5046495;28;20045;-74
2021/11/30 08:25:42;;;;;;;4.18;0.90;;;;;;;;;;5047407;28;20763;-73
2021/11/30 08:28:09;;;;;;;0.40;0.40;;;;;;;;;;5041495;28;20460;-73
2021/11/30 08:30:35;;;;;;;0.10;0.10;;;;;;;;;;5028550;28;20025;-74
2021/11/30 08:33:01;;;;;;;0.05;0.05;;;;;;;;;;5028404;28;20356;-73
2021/11/30 08:35:27;;;;;;;0.10;0.10;;;;;;;;;;5044546;28;20275;-73
2021/11/30 08:37:54;;;;;;;0.10;0.10;;;;;;;;;;5039344;28;20069;-73
2021/11/30 08:40:20;;;;;;;0.10;0.10;;;;;;;;;;5028948;28;20059;-73
2021/11/30 08:42:46;;;;;;;0.40;0.40;;;;;;;;;;5034274;28;20442;-73
2021/11/30 08:45:12;;;;;;;0.10;0.10;;;;;;;;;;5040511;28;20025;-73
2021/11/30 08:47:38;;;;;;;0.10;0.10;;;;;;;;;;5045452;28;20029;-73
2021/11/30 08:50:09;;;;;;;0.20;0.20;;;;;;;;;;5029221;28;20025;-73
2021/11/30 08:52:35;;;;;;;0.70;0.35;;;;;;;;;;5028024;28;20018;-73
2021/11/30 08:55:01;;;;;;;0.52;0.52;;;;;;;;;;5028406;28;20034;-73
2021/11/30 08:57:28;;;;;;;0.10;0.10;;;;;;;;;;5028770;28;20035;-73
2021/11/30 08:59:55;;;;;;;0.10;0.10;;;;;;;;;;5047893;28;20457;-73
2021/11/30 09:02:21;;;;;;;0.55;0.55;;;;;;;;;;5046364;28;20463;-75
2021/11/30 09:04:48;;;;;;;0.30;0.30;;;;;;;;;;5031266;28;20025;-72
2021/11/30 09:07:16;;;;;;;0.00;0.00;;;;;;;;;;5028098;28;20565;-74
2021/11/30 09:09:43;;;;;;;0.00;0.00;;;;;;;;;;5033815;28;20063;-74
2021/11/30 09:12:09;;;;;;;0.05;0.05;;;;;;;;;;5032185;28;20109;-73
2021/11/30 09:14:35;;;;;;;0.10;0.10;;;;;;;;;;5028124;28;20061;-74
2021/11/30 09:17:01;;;;;;;0.10;0.10;;;;;;;;;;5040275;28;20021;-74
2021/11/30 09:19:27;;;;;;;0.68;0.43;;;;;;;;;;5044210;28;20028;-75
2021/11/30 09:21:54;;;;;;;0.47;0.47;;;;;;;;;;5028457;28;20056;-76
2021/11/30 09:24:20;;;;;;;0.10;0.10;;;;;;;;;;5028273;28;20022;-76
2021/11/30 09:26:46;;;;;;;0.13;0.13;;;;;;;;;;5028290;28;20546;-76
2021/11/30 09:29:12;;;;;;;0.30;0.30;;;;;;;;;;5027819;28;20116;-73
2021/11/30 09:31:39;;;;;;;0.17;0.17;;;;;;;;;;5028428;28;20735;-74
2021/11/30 09:34:05;;;;;;;0.20;0.20;;;;;;;;;;5028489;28;20599;-70
2021/11/30 09:36:32;;;;;;;0.10;0.10;;;;;;;;;;5033505;28;20030;-73
2021/11/30 09:38:59;;;;;;;0.10;0.10;;;;;;;;;;5031082;28;20103;-73
2021/11/30 09:41:26;;;;;;;0.22;0.22;;;;;;;;;;5028614;28;20464;-73
2021/11/30 09:43:52;;;;;;;2.90;0.65;;;;;;;;;;5035520;28;20036;-74
2021/11/30 09:46:18;;;;;;;0.38;0.38;;;;;;;;;;5031731;28;20014;-70
2021/11/30 09:48:44;;;;;;;0.10;0.10;;;;;;;;;;5035648;28;20068;-72
2021/11/30 09:51:10;;;;;;;0.08;0.08;;;;;;;;;;5045484;28;20036;-70
2021/11/30 09:53:36;;;;;;;0.00;0.00;;;;;;;;;;5034383;28;20043;-69
2021/11/30 09:56:03;;;;;;;0.20;0.20;;;;;;;;;;5047606;28;20052;-72
2021/11/30 09:58:29;;;;;;;0.10;0.10;;;;;;;;;;5039324;28;20044;-72
2021/11/30 10:00:56;;;;;;;0.28;0.28;;;;;;;;;;5033738;28;20124;-74
2021/11/30 10:03:23;;;;;;;0.10;0.10;;;;;;;;;;5044058;28;20033;-72
2021/11/30 10:05:49;;;;;;;0.00;0.00;;;;;;;;;;5051312;28;20036;-72
2021/11/30 10:08:29;;;;;;;0.25;0.25;;;;;;;;;;5043504;28;20022;-71
2021/11/30 10:10:55;;;;;;;0.38;0.38;;;;;;;;;;5031132;28;20021;-72
2021/11/30 10:13:21;;;;;;;0.28;0.28;;;;;;;;;;5032853;28;20496;-72
2021/11/30 10:15:47;;;;;;;0.10;0.10;;;;;;;;;;5031114;28;20038;-72
2021/11/30 10:18:17;;;;;;;0.10;0.10;;;;;;;;;;5030938;28;20131;-71
2021/11/30 10:20:44;;;;;;;2.20;0.30;;;;;;;;;;5030977;28;20068;-71
2021/11/30 10:23:10;;;;;;;0.10;0.10;;;;;;;;;;5032626;28;20037;-71
2021/11/30 10:25:38;;;;;;;0.13;0.13;;;;;;;;;;5031016;28;20530;-72
2021/11/30 10:28:16;;;;;;;0.10;0.10;;;;;;;;;;5031182;28;20035;-71
2021/11/30 10:30:46;;;;;;;0.00;0.00;;;;;;;;;;5036916;28;20017;-71
2021/11/30 10:33:19;;;;;;;0.28;0.28;;;;;;;;;;5030807;28;20056;-71
2021/11/30 10:35:46;;;;;;;0.00;0.00;;;;;;;;;;5031473;28;21055;-71
2021/11/30 10:38:12;;;;;;;2.38;1.75;;;;;;;;;;5037343;28;20029;-71
2021/11/30 10:40:40;;;;;;;0.00;0.00;;;;;;;;;;5030006;28;20030;-71
2021/11/30 10:43:07;;;;;;;0.10;0.10;;;;;;;;;;5030952;28;20502;-71
2021/11/30 10:45:43;;;;;;;0.00;0.00;;;;;;;;;;5030813;28;20021;-74
2021/11/30 10:48:17;;;;;;;0.20;0.20;;;;;;;;;;5040701;28;20055;-74
2021/11/30 10:50:47;;;;;;;0.10;0.10;;;;;;;;;;5046301;28;20116;-74
2021/11/30 10:53:27;;;;;;;1.35;0.60;;;;;;;;;;5033842;28;20583;-75
2021/11/30 10:55:54;;;;;;;0.20;0.20;;;;;;;;;;5034927;28;20033;-75
2021/11/30 10:58:22;;;;;;;1.38;0.68;;;;;;;;;;5030782;28;20086;-74
2021/11/30 11:00:49;;;;;;;0.30;0.30;;;;;;;;;;5032518;28;20041;-75
2021/11/30 11:03:22;;;;;;;0.00;0.00;;;;;;;;;;5042962;28;20506;-74
2021/11/30 11:06:28;;;;;;;0.10;0.10;;;;;;;;;;5029868;28;20471;-75
2021/11/30 11:08:40;;;;;;;0.20;0.20;;;;;;;;;;5034638;28;20063;-74
2021/11/30 11:11:06;;;;;;;0.20;0.20;;;;;;;;;;5030182;28;20029;-74
2021/11/30 11:13:35;;;;;;;0.10;0.10;;;;;;;;;;5037804;28;20033;-75
2021/11/30 11:16:05;;;;;;;0.30;0.30;;;;;;;;;;5032982;28;20025;-74
2021/11/30 11:18:38;;;;;;;0.10;0.10;;;;;;;;;;5029615;28;20026;-74
2021/11/30 11:21:20;;;;;;;0.00;0.00;;;;;;;;;;5028191;28;20040;-74
2021/11/30 11:24:07;;;;;;;0.10;0.10;;;;;;;;;;5047839;28;20032;-74
2021/11/30 11:26:40;;;;;;;0.17;0.17;;;;;;;;;;5049386;28;20040;-74
2021/11/30 11:29:17;;;;;;;0.55;0.32;;;;;;;;;;5049716;28;20113;-74
2021/11/30 11:31:48;;;;;;;0.10;0.10;;;;;;;;;;5043592;28;20128;-75
2021/11/30 11:34:15;;;;;;;0.20;0.20;;;;;;;;;;5029323;28;20510;-74
2021/11/30 11:36:41;;;;;;;0.45;0.45;;;;;;;;;;5040708;28;20120;-74
2021/11/30 11:39:07;;;;;;;0.00;0.00;;;;;;;;;;5045310;28;20037;-74
2021/11/30 11:41:34;;;;;;;3.60;1.05;;;;;;;;;;5049300;28;20040;-75
2021/11/30 11:44:00;;;;;;;3.40;2.03;;;;;;;;;;5031186;28;20033;-74
2021/11/30 11:46:33;;;;;;;0.00;0.00;;;;;;;;;;5044398;28;20021;-73
2021/11/30 11:49:00;;;;;;;12.75;0.98;;;;;;;;;;5029438;28;20315;-74
2021/11/30 11:51:39;;;;;;;0.13;0.13;;;;;;;;;;5029211;28;20467;-73
2021/11/30 11:54:06;;;;;;;0.65;0.65;;;;;;;;;;5029613;28;20069;-74
2021/11/30 11:56:34;;;;;;;0.00;0.00;;;;;;;;;;5042999;28;20025;-74
2021/11/30 11:59:16;;;;;;;0.03;0.03;;;;;;;;;;5029158;28;20040;-74
2021/11/30 12:01:45;;;;;;;0.00;0.00;;;;;;;;;;5036252;28;20037;-74
2021/11/30 12:04:15;;;;;;;0.03;0.03;;;;;;;;;;5046469;28;20116;-73
2021/11/30 12:07:01;;;;;;;0.10;0.10;;;;;;;;;;5048230;28;20053;-73
2021/11/30 12:09:34;;;;;;;0.00;0.00;;;;;;;;;;5041946;28;20057;-74
2021/11/30 12:12:01;;;;;;;1.17;0.63;;;;;;;;;;5048160;28;20032;-74
2021/11/30 12:14:30;;;;;;;0.22;0.22;;;;;;;;;;5048196;28;20561;-73
2021/11/30 12:17:15;;;;;;;0.00;0.00;;;;;;;;;;5048243;28;20171;-74
2021/11/30 12:19:41;;;;;;;0.35;0.35;;;;;;;;;;5044771;28;20045;-73
2021/11/30 12:22:10;;;;;;;0.08;0.08;;;;;;;;;;5036397;28;20049;-73
2021/11/30 12:24:37;;;;;;;1.60;1.30;;;;;;;;;;5028200;28;20050;-74
2021/11/30 12:27:22;;;;;;;0.45;0.45;;;;;;;;;;5028309;28;20253;-74
2021/11/30 12:29:49;;;;;;;0.75;0.75;;;;;;;;;;5028036;28;20036;-74
2021/11/30 12:32:20;;;;;;;0.00;0.00;;;;;;;;;;5044118;28;20033;-74
2021/11/30 12:34:49;;;;;;;2.35;2.15;;;;;;;;;;5047686;28;20063;-74
2021/11/30 12:37:22;;;;;;;0.10;0.10;;;;;;;;;;5047959;28;20051;-74
2021/11/30 12:39:55;;;;;;;0.10;0.10;;;;;;;;;;5047869;28;20147;-74
2021/11/30 12:42:21;;;;;;;0.20;0.20;;;;;;;;;;5030943;28;20033;-74
2021/11/30 12:44:48;;;;;;;0.00;0.00;;;;;;;;;;5027699;28;20029;-73
2021/11/30 12:47:24;;;;;;;0.00;0.00;;;;;;;;;;5028066;28;20025;-74
2021/11/30 12:49:51;;;;;;;0.00;0.00;;;;;;;;;;5027906;28;20480;-74
2021/11/30 12:52:19;;;;;;;2.40;1.25;;;;;;;;;;5031640;28;20044;-74
2021/11/30 12:54:53;;;;;;;0.45;0.38;;;;;;;;;;5032967;28;20044;-74
2021/11/30 12:57:29;;;;;;;0.00;0.00;;;;;;;;;;5048140;28;20028;-74
2021/11/30 12:59:59;;;;;;;8.40;2.83;;;;;;;;;;5047696;28;20028;-74
2021/11/30 13:02:29;;;;;;;9.15;2.00;;;;;;;;;;5044144;28;20025;-73
2021/11/30 13:05:17;;;;;;;0.05;0.05;;;;;;;;;;5032237;28;20197;-74
2021/11/30 13:07:53;;;;;;;0.00;0.00;;;;;;;;;;5028317;28;20103;-73
2021/11/30 13:10:19;;;;;;;0.10;0.10;;;;;;;;;;5043681;28;20029;-74
2021/11/30 13:12:45;;;;;;;0.20;0.20;;;;;;;;;;5038375;28;20042;-73
2021/11/30 13:15:11;;;;;;;0.38;0.38;;;;;;;;;;5041944;28;20490;-74
2021/11/30 13:17:37;;;;;;;0.10;0.10;;;;;;;;;;5052128;28;20100;-74
2021/11/30 13:20:11;;;;;;;0.10;0.10;;;;;;;;;;5046783;28;20057;-74
2021/11/30 13:22:41;;;;;;;0.00;0.00;;;;;;;;;;5032869;28;20500;-74
2021/11/30 13:25:14;;;;;;;0.08;0.08;;;;;;;;;;5052139;28;20479;-73
2021/11/30 13:27:39;;;;;;;0.00;0.00;;;;;;;;;;5051951;28;20043;-74
2021/11/30 13:30:10;;;;;;;0.00;0.00;;;;;;;;;;5044101;28;20109;-73
2021/11/30 13:32:40;;;;;;;0.10;0.10;;;;;;;;;;5048210;28;20031;-74
2021/11/30 13:35:10;;;;;;;0.00;0.00;;;;;;;;;;5051056;28;20472;-73
2021/11/30 13:37:37;;;;;;;0.15;0.15;;;;;;;;;;5046884;28;20537;-74
2021/11/30 13:40:08;;;;;;;1.42;1.33;;;;;;;;;;5049103;28;20084;-74
2021/11/30 13:42:44;;;;;;;0.08;0.08;;;;;;;;;;5038492;28;20101;-74
2021/11/30 13:45:11;;;;;;;0.15;0.15;;;;;;;;;;5031649;28;20091;-74
2021/11/30 13:47:43;;;;;;;0.52;0.35;;;;;;;;;;5045881;28;20025;-74
2021/11/30 13:50:10;;;;;;;0.10;0.10;;;;;;;;;;5050880;28;20024;-73
2021/11/30 13:52:36;;;;;;;0.00;0.00;;;;;;;;;;5048220;28;20017;-74
2021/11/30 13:55:03;;;;;;;0.25;0.25;;;;;;;;;;5036229;28;20032;-74
2021/11/30 13:57:31;;;;;;;0.00;0.00;;;;;;;;;;5031200;28;20619;-74
2021/11/30 14:00:01;;;;;;;0.03;0.03;;;;;;;;;;5039801;28;20619;-74
2021/11/30 14:03:01;;;;;;;0.10;0.10;;;;;;;;;;5048002;28;20025;-74
2021/11/30 14:05:30;;;;;;;0.00;0.00;;;;;;;;;;5034260;28;20227;-74
2021/11/30 14:07:57;;;;;;;0.45;0.45;;;;;;;;;;5039118;28;20476;-74
2021/11/30 14:10:25;;;;;;;0.00;0.00;;;;;;;;;;5040300;28;20029;-73
2021/11/30 14:12:56;;;;;;;0.30;0.30;;;;;;;;;;5035504;28;20033;-73
2021/11/30 14:15:31;;;;;;;0.08;0.08;;;;;;;;;;5041480;28;20582;-73
2021/11/30 14:18:10;;;;;;;0.00;0.00;;;;;;;;;;5041031;28;20488;-74
2021/11/30 14:20:36;;;;;;;0.28;0.28;;;;;;;;;;5039670;28;20484;-74
2021/11/30 14:23:15;;;;;;;0.03;0.03;;;;;;;;;;5038542;28;20136;-73
2021/11/30 14:25:41;;;;;;;0.15;0.15;;;;;;;;;;5037100;28;20108;-73
2021/11/30 14:28:12;;;;;;;0.00;0.00;;;;;;;;;;5034498;28;20116;-73
2021/11/30 14:30:39;;;;;;;0.00;0.00;;;;;;;;;;5041327;28;20079;-72
2021/11/30 14:33:06;;;;;;;0.00;0.00;;;;;;;;;;5050728;28;20414;-72
2021/11/30 14:35:43;;;;;;;0.63;0.63;;;;;;;;;;5033861;28;20029;-74
2021/11/30 14:38:09;;;;;;;0.08;0.08;;;;;;;;;;5035302;28;20120;-74
2021/11/30 14:40:38;;;;;;;0.00;0.00;;;;;;;;;;5037699;28;20033;-72
2021/11/30 14:43:10;;;;;;;0.25;0.20;;;;;;;;;;5029757;28;20051;-73
2021/11/30 14:45:48;;;;;;;0.00;0.00;;;;;;;;;;5043328;28;20078;-72
2021/11/30 14:48:16;;;;;;;0.10;0.10;;;;;;;;;;5043173;28;20116;-72
2021/11/30 14:50:56;;;;;;;0.22;0.22;;;;;;;;;;5044343;28;20379;-72
2021/11/30 14:53:23;;;;;;;0.00;0.00;;;;;;;;;;5045192;28;20021;-73
2021/11/30 14:55:52;;;;;;;0.00;0.00;;;;;;;;;;5043699;28;20033;-72
2021/11/30 14:58:20;;;;;;;0.00;0.00;;;;;;;;;;5046666;28;20029;-73
2021/11/30 15:01:00;;;;;;;0.03;0.03;;;;;;;;;;5037614;28;20492;-74
2021/11/30 15:03:34;;;;;;;0.10;0.10;;;;;;;;;;5038836;28;20551;-74
2021/11/30 15:06:07;;;;;;;2.92;1.95;;;;;;;;;;5037247;28;20091;-72
2021/11/30 15:08:38;;;;;;;3.78;1.95;;;;;;;;;;5030581;28;20556;-71